createdAt,value
2019-04-04T00:00:57.603Z,14.93
2019-04-04T00:03:27.961Z,13.10
2019-04-04T00:05:58.678Z,13.73
2019-04-04T00:08:31.668Z,13.80
2019-04-04T00:11:02.206Z,13.57
2019-04-04T00:13:33.138Z,14.10
2019-04-04T00:16:03.542Z,14.30
2019-04-04T00:18:34.222Z,13.50
2019-04-04T00:21:05.096Z,13.60
2019-04-04T00:23:37.663Z,13.60
2019-04-04T00:26:10.499Z,14.33
2019-04-04T00:28:39.935Z,13.50
2019-04-04T00:31:10.649Z,15.70
2019-04-04T00:33:41.061Z,13.93
2019-04-04T00:36:11.417Z,16.17
2019-04-04T00:38:42.189Z,14.27
2019-04-04T00:41:13.535Z,15.08
2019-04-04T00:43:44.315Z,15.47
2019-04-04T00:46:15.416Z,14.23
2019-04-04T00:48:45.758Z,14.20
2019-04-04T00:51:16.454Z,13.90
2019-04-04T00:53:46.814Z,13.83
2019-04-04T00:56:18.033Z,13.83
2019-04-04T00:58:51.640Z,15.13
2019-04-04T01:01:21.802Z,16.33
2019-04-04T01:03:52.150Z,16.67
2019-04-04T01:06:22.904Z,16.40
2019-04-04T01:08:53.655Z,15.80
2019-04-04T01:11:24.531Z,16.67
2019-04-04T01:13:57.566Z,16.00
2019-04-04T01:16:27.554Z,16.00
2019-04-04T01:18:58.428Z,15.43
2019-04-04T01:21:29.209Z,16.40
2019-04-04T01:23:59.644Z,15.80
2019-04-04T01:26:30.348Z,15.70
2019-04-04T01:29:01.089Z,15.80
2019-04-04T01:31:31.535Z,15.83
2019-04-04T01:34:01.939Z,16.33
2019-04-04T01:36:32.341Z,17.73
2019-04-04T01:39:03.185Z,15.80
2019-04-04T01:41:35.961Z,15.97
2019-04-04T01:44:05.670Z,18.90
2019-04-04T01:46:36.088Z,16.67
2019-04-04T01:49:06.804Z,16.77
2019-04-04T01:51:37.575Z,16.83
2019-04-04T01:54:08.223Z,15.63
2019-04-04T01:56:38.637Z,16.07
2019-04-04T01:59:10.222Z,15.87
2019-04-04T02:01:41.479Z,17.37
2019-04-04T02:04:11.845Z,15.60
2019-04-04T02:06:42.194Z,15.70
2019-04-04T02:09:12.995Z,16.47
2019-04-04T02:11:43.835Z,17.47
2019-04-04T02:14:14.608Z,17.17
2019-04-04T02:16:51.003Z,15.57
2019-04-04T02:19:18.188Z,16.57
2019-04-04T02:21:48.960Z,15.53
2019-04-04T02:24:19.746Z,15.63
2019-04-04T02:26:50.180Z,16.50
2019-04-04T02:29:20.636Z,15.90
2019-04-04T02:31:55.584Z,16.10
2019-04-04T02:34:26.250Z,15.60
2019-04-04T02:36:56.904Z,18.70
2019-04-04T02:39:27.370Z,16.63
2019-04-04T02:41:58.298Z,16.90
2019-04-04T02:44:31.736Z,16.40
2019-04-04T02:47:01.231Z,17.47
2019-04-04T02:49:31.925Z,16.40
2019-04-04T02:52:02.646Z,17.70
2019-04-04T02:54:33.025Z,15.97
2019-04-04T02:57:07.957Z,16.07
2019-04-04T02:59:36.090Z,17.27
2019-04-04T03:02:06.840Z,16.30
2019-04-04T03:04:37.175Z,18.20
2019-04-04T03:07:07.915Z,14.93
2019-04-04T03:09:41.944Z,16.33
2019-04-04T03:12:11.020Z,16.73
2019-04-04T03:14:41.446Z,17.60
2019-04-04T03:17:11.817Z,18.40
2019-04-04T03:19:43.560Z,16.70
2019-04-04T03:22:15.063Z,16.87
2019-04-04T03:24:45.556Z,17.80
2019-04-04T03:27:15.890Z,16.07
2019-04-04T03:29:46.969Z,16.75
2019-04-04T03:32:17.619Z,16.73
2019-04-04T03:34:50.470Z,17.82
2019-04-04T03:37:20.155Z,16.90
2019-04-04T03:39:53.124Z,18.27
2019-04-04T03:42:23.204Z,17.70
2019-04-04T03:44:54.424Z,15.77
2019-04-04T03:47:24.972Z,17.40
2019-04-04T03:49:57.656Z,17.70
2019-04-04T03:52:28.002Z,18.82
2019-04-04T03:54:58.338Z,17.02
2019-04-04T03:57:28.937Z,17.70
2019-04-04T03:59:59.335Z,16.93
2019-04-04T04:02:29.732Z,18.32
2019-04-04T04:05:01.801Z,15.83
2019-04-04T04:07:33.126Z,18.75
2019-04-04T04:10:04.622Z,17.52
2019-04-04T04:12:35.552Z,17.85
2019-04-04T04:15:06.850Z,16.67
2019-04-04T04:17:37.211Z,17.45
2019-04-04T04:20:07.580Z,17.02
2019-04-04T04:22:37.946Z,16.77
2019-04-04T04:25:08.375Z,16.30
2019-04-04T04:27:38.757Z,17.45
2019-04-04T04:30:09.105Z,17.07
2019-04-04T04:32:39.472Z,17.10
2019-04-04T04:35:09.828Z,17.65
2019-04-04T04:37:40.217Z,17.92
2019-04-04T04:40:13.638Z,18.37
2019-04-04T04:42:42.780Z,16.23
2019-04-04T04:45:13.553Z,18.95
2019-04-04T04:47:43.908Z,18.35
2019-04-04T04:50:14.282Z,19.12
2019-04-04T04:52:47.354Z,17.23
2019-04-04T04:55:17.028Z,18.35
2019-04-04T04:57:47.755Z,16.57
2019-04-04T05:00:18.112Z,18.40
2019-04-04T05:02:51.049Z,18.05
2019-04-04T05:05:21.576Z,17.90
2019-04-04T05:07:54.772Z,17.77
2019-04-04T05:10:24.709Z,17.40
2019-04-04T05:12:55.329Z,16.90
2019-04-04T05:15:25.971Z,17.50
2019-04-04T05:17:56.323Z,17.42
2019-04-04T05:20:29.704Z,16.67
2019-04-04T05:22:59.118Z,16.62
2019-04-04T05:25:31.277Z,17.80
2019-04-04T05:28:01.515Z,16.47
2019-04-04T05:30:32.132Z,16.57
2019-04-04T05:33:02.520Z,16.48
2019-04-04T05:35:33.485Z,16.10
2019-04-04T05:38:07.604Z,18.00
2019-04-04T05:40:37.233Z,17.00
2019-04-04T05:43:27.631Z,17.90
2019-04-04T05:45:58.246Z,15.70
2019-04-04T05:48:48.412Z,16.37
2019-04-04T05:51:18.751Z,16.77
2019-04-04T05:53:49.200Z,16.80
2019-04-04T05:56:19.874Z,16.87
2019-04-04T05:58:51.080Z,16.20
2019-04-04T06:01:23.445Z,16.03
2019-04-04T06:03:53.751Z,16.53
2019-04-04T06:06:24.501Z,15.50
2019-04-04T06:08:55.147Z,16.90
2019-04-04T06:11:25.542Z,16.40
2019-04-04T06:13:57.016Z,16.30
2019-04-04T06:16:28.273Z,17.03
2019-04-04T06:18:58.951Z,16.07
2019-04-04T06:21:29.305Z,17.00
2019-04-04T06:23:59.644Z,15.93
2019-04-04T06:26:30.011Z,16.33
2019-04-04T06:29:00.653Z,16.20
2019-04-04T06:31:31.106Z,16.50
2019-04-04T06:34:05.568Z,15.60
2019-04-04T06:36:34.728Z,15.67
2019-04-04T06:39:08.138Z,15.90
2019-04-04T06:41:38.960Z,15.83
2019-04-04T06:44:10.987Z,15.53
2019-04-04T06:46:42.232Z,16.47
2019-04-04T06:49:12.623Z,16.50
2019-04-04T06:51:46.123Z,16.30
2019-04-04T06:54:15.336Z,16.07
2019-04-04T06:56:46.132Z,14.93
2019-04-04T06:59:16.557Z,14.90
2019-04-04T07:01:47.309Z,14.27
2019-04-04T07:04:18.451Z,14.67
2019-04-04T07:06:48.790Z,14.60
2019-04-04T07:09:19.301Z,14.70
2019-04-04T07:11:49.652Z,15.73
2019-04-04T07:14:20.346Z,15.33
2019-04-04T07:16:50.855Z,14.20
2019-04-04T07:19:22.973Z,13.77
2019-04-04T07:21:53.704Z,15.10
2019-04-04T07:24:24.193Z,14.10
2019-04-04T07:26:54.555Z,15.67
2019-04-04T07:29:25.990Z,12.73
2019-04-04T07:31:56.517Z,13.23
2019-04-04T07:34:26.908Z,14.35
2019-04-04T07:36:57.592Z,13.00
2019-04-04T07:39:31.972Z,14.07
2019-04-04T07:42:00.395Z,13.63
2019-04-04T07:44:30.879Z,15.23
2019-04-04T07:47:01.226Z,13.30
2019-04-04T07:49:32.389Z,12.97
2019-04-04T07:52:03.032Z,11.90
2019-04-04T07:54:33.436Z,13.60
2019-04-04T07:57:04.154Z,12.17
2019-04-04T07:59:35.260Z,13.17
2019-04-04T08:02:05.631Z,13.77
2019-04-04T08:04:36.438Z,12.87
2019-04-04T08:07:07.123Z,12.67
2019-04-04T08:09:37.871Z,13.40
2019-04-04T08:12:08.680Z,12.17
2019-04-04T08:14:39.435Z,11.70
2019-04-04T08:17:09.825Z,12.07
2019-04-04T08:19:40.514Z,12.70
2019-04-04T08:22:11.318Z,11.70
2019-04-04T08:24:42.196Z,11.03
2019-04-04T08:27:12.629Z,11.70
2019-04-04T08:29:43.405Z,11.50
2019-04-04T08:32:13.766Z,11.70
2019-04-04T08:34:44.830Z,11.23
2019-04-04T08:37:15.197Z,10.97
2019-04-04T08:39:45.556Z,11.00
2019-04-04T08:42:16.067Z,11.77
2019-04-04T08:44:46.401Z,10.30
2019-04-04T08:47:16.745Z,10.73
2019-04-04T08:49:47.141Z,11.33
2019-04-04T08:52:20.695Z,11.03
2019-04-04T08:54:49.579Z,10.93
2019-04-04T08:57:20.334Z,10.60
2019-04-04T08:59:51.056Z,11.10
2019-04-04T09:02:21.779Z,10.23
2019-04-04T09:04:52.389Z,11.50
2019-04-04T09:07:22.729Z,10.20
2019-04-04T09:09:53.533Z,11.37
2019-04-04T09:12:24.355Z,10.60
2019-04-04T09:14:54.729Z,10.67
2019-04-04T09:17:25.808Z,10.70
2019-04-04T09:19:56.602Z,9.60
2019-04-04T09:22:26.941Z,10.53
2019-04-04T09:24:57.890Z,10.73
2019-04-04T09:27:28.604Z,11.47
2019-04-04T09:29:59.260Z,10.60
2019-04-04T09:32:29.623Z,10.13
2019-04-04T09:35:00.047Z,10.60
2019-04-04T09:37:30.536Z,10.30
2019-04-04T09:40:01.281Z,10.40
2019-04-04T09:42:32.048Z,9.90
2019-04-04T09:45:02.390Z,8.90
2019-04-04T09:47:33.524Z,8.80
2019-04-04T09:50:10.627Z,8.83
2019-04-04T09:52:40.986Z,9.90
2019-04-04T09:55:11.787Z,9.67
2019-04-04T09:57:42.523Z,10.70
2019-04-04T10:00:16.511Z,9.80
2019-04-04T10:02:47.149Z,10.10
2019-04-04T10:05:18.772Z,9.30
2019-04-04T10:07:49.420Z,9.80
2019-04-04T10:10:19.818Z,9.30
2019-04-04T10:12:51.529Z,8.83
2019-04-04T10:15:21.988Z,8.93
2019-04-04T10:17:52.997Z,8.70
2019-04-04T10:20:23.333Z,8.63
2019-04-04T10:22:53.685Z,8.00
2019-04-04T10:25:24.412Z,9.10
2019-04-04T10:27:54.807Z,9.53
2019-04-04T10:30:25.168Z,8.63
2019-04-04T10:32:55.547Z,7.30
2019-04-04T10:35:26.579Z,8.37
2019-04-04T10:37:57.003Z,8.23
2019-04-04T10:40:27.680Z,8.87
2019-04-04T10:42:58.396Z,8.13
2019-04-04T10:45:29.026Z,8.23
2019-04-04T10:47:59.703Z,7.40
2019-04-04T10:50:30.299Z,7.43
2019-04-04T10:53:01.056Z,7.37
2019-04-04T10:55:31.441Z,7.30
2019-04-04T10:58:01.795Z,8.07
2019-04-04T11:00:32.147Z,8.10
2019-04-04T11:03:02.523Z,7.33
2019-04-04T11:05:35.343Z,7.87
2019-04-04T11:08:05.991Z,7.63
2019-04-04T11:10:36.446Z,7.80
2019-04-04T11:13:06.797Z,8.00
2019-04-04T11:15:37.155Z,6.57
2019-04-04T11:18:07.586Z,7.17
2019-04-04T11:20:37.951Z,6.97
2019-04-04T11:23:08.679Z,8.07
2019-04-04T11:25:39.079Z,7.40
2019-04-04T11:28:09.815Z,7.00
2019-04-04T11:30:40.459Z,6.10
2019-04-04T11:33:10.800Z,6.83
2019-04-04T11:35:41.182Z,7.83
2019-04-04T11:38:11.824Z,7.17
2019-04-04T11:40:42.481Z,5.60
2019-04-04T11:43:12.808Z,5.90
2019-04-04T11:45:43.688Z,5.60
2019-04-04T11:48:14.588Z,6.70
2019-04-04T11:50:45.302Z,6.67
2019-04-04T11:53:15.655Z,5.90
2019-04-04T11:55:46.079Z,6.83
2019-04-04T11:58:16.446Z,6.00
2019-04-04T12:00:48.617Z,6.00
2019-04-04T12:03:19.439Z,6.70
2019-04-04T12:05:49.796Z,6.20
2019-04-04T12:08:20.151Z,5.97
2019-04-04T12:10:50.503Z,6.40
2019-04-04T12:13:20.918Z,6.40
2019-04-04T12:15:51.266Z,7.10
2019-04-04T12:18:21.613Z,7.17
2019-04-04T12:20:52.003Z,6.07
2019-04-04T12:23:22.325Z,6.10
2019-04-04T12:25:53.375Z,6.30
2019-04-04T12:28:23.791Z,6.20
2019-04-04T12:30:54.440Z,5.73
2019-04-04T12:33:25.482Z,7.20
2019-04-04T12:35:56.211Z,7.07
2019-04-04T12:38:26.646Z,8.33
2019-04-04T12:40:56.999Z,6.97
2019-04-04T12:43:27.716Z,7.10
2019-04-04T12:45:58.069Z,5.83
2019-04-04T12:48:28.440Z,7.17
2019-04-04T12:50:58.781Z,7.70
2019-04-04T12:53:29.153Z,7.30
2019-04-04T12:55:59.797Z,5.77
2019-04-04T12:58:30.145Z,6.13
2019-04-04T13:01:00.543Z,6.50
2019-04-04T13:03:30.874Z,7.37
2019-04-04T13:06:01.223Z,6.90
2019-04-04T13:08:32.428Z,6.70
2019-04-04T13:11:03.160Z,7.20
2019-04-04T13:13:33.803Z,6.90
2019-04-04T13:16:04.522Z,6.80
2019-04-04T13:18:34.900Z,7.10
2019-04-04T13:21:05.311Z,6.70
2019-04-04T13:23:35.936Z,7.00
2019-04-04T13:26:06.666Z,6.27
2019-04-04T13:28:37.060Z,6.37
2019-04-04T13:31:07.783Z,6.23
2019-04-04T13:33:38.479Z,6.70
2019-04-04T13:36:09.379Z,6.23
2019-04-04T13:38:40.131Z,6.80
2019-04-04T13:41:21.413Z,6.13
2019-04-04T13:43:42.944Z,7.30
2019-04-04T13:46:13.968Z,6.00
2019-04-04T13:48:44.335Z,6.20
2019-04-04T13:51:14.767Z,6.33
2019-04-04T13:53:45.136Z,6.30
2019-04-04T13:56:15.529Z,6.07
2019-04-04T13:58:47.491Z,6.20
2019-04-04T14:01:18.306Z,6.40
2019-04-04T14:03:49.027Z,5.53
2019-04-04T14:06:19.406Z,5.73
2019-04-04T14:08:49.781Z,6.00
2019-04-04T14:11:20.135Z,6.33
2019-04-04T14:13:50.486Z,6.23
2019-04-04T14:16:20.862Z,5.93
2019-04-04T14:18:51.216Z,5.20
2019-04-04T14:21:22.311Z,5.90
2019-04-04T14:23:53.132Z,5.80
2019-04-04T14:26:23.880Z,5.80
2019-04-04T14:28:54.279Z,6.40
2019-04-04T14:31:24.977Z,5.77
2019-04-04T14:33:55.326Z,5.50
2019-04-04T14:36:26.138Z,6.30
2019-04-04T14:38:56.603Z,6.90
2019-04-04T14:41:26.933Z,5.10
2019-04-04T14:43:59.940Z,6.33
2019-04-04T14:46:29.613Z,6.20
2019-04-04T14:49:00.340Z,5.77
2019-04-04T14:51:31.274Z,5.90
2019-04-04T14:54:01.997Z,6.13
2019-04-04T14:56:33.467Z,5.90
2019-04-04T14:59:04.181Z,5.80
2019-04-04T15:01:35.169Z,6.43
2019-04-04T15:04:05.690Z,5.70
2019-04-04T15:06:36.091Z,6.47
2019-04-04T15:09:09.371Z,5.20
2019-04-04T15:11:40.026Z,5.07
2019-04-04T15:14:10.775Z,5.33
2019-04-04T15:16:41.394Z,5.50
2019-04-04T15:19:11.788Z,5.87
2019-04-04T15:21:42.121Z,5.73
2019-04-04T15:24:12.786Z,6.10
2019-04-04T15:26:43.846Z,5.33
2019-04-04T15:29:14.220Z,4.77
2019-04-04T15:31:44.894Z,5.53
2019-04-04T15:34:15.246Z,5.23
2019-04-04T15:36:46.260Z,5.23
2019-04-04T15:39:16.901Z,4.90
2019-04-04T15:41:47.245Z,5.53
2019-04-04T15:44:17.992Z,5.03
2019-04-04T15:46:48.824Z,4.53
2019-04-04T15:49:19.513Z,4.80
2019-04-04T15:51:49.872Z,5.50
2019-04-04T15:54:20.626Z,5.23
2019-04-04T15:56:50.972Z,5.20
2019-04-04T15:59:21.679Z,4.97
2019-04-04T16:01:52.322Z,5.30
2019-04-04T16:04:22.675Z,5.07
2019-04-04T16:06:53.305Z,4.80
2019-04-04T16:09:23.704Z,5.17
2019-04-04T16:11:54.067Z,4.20
2019-04-04T16:14:24.810Z,5.17
2019-04-04T16:16:55.232Z,5.50
2019-04-04T16:19:25.581Z,5.43
2019-04-04T16:21:56.322Z,5.17
2019-04-04T16:24:27.071Z,5.03
2019-04-04T16:26:57.870Z,4.87
2019-04-04T16:29:28.497Z,4.83
2019-04-04T16:31:59.363Z,4.50
2019-04-04T16:34:29.715Z,4.97
2019-04-04T16:37:00.165Z,4.60
2019-04-04T16:39:30.992Z,5.27
2019-04-04T16:42:02.632Z,7.37
2019-04-04T16:44:33.397Z,7.20
2019-04-04T16:47:04.214Z,4.57
2019-04-04T16:49:34.830Z,4.40
2019-04-04T16:52:07.205Z,4.93
2019-04-04T16:54:38.373Z,5.27
2019-04-04T16:57:09.490Z,4.77
2019-04-04T16:59:40.992Z,5.30
2019-04-04T17:02:11.352Z,5.10
2019-04-04T17:04:41.966Z,5.07
2019-04-04T17:07:12.333Z,5.30
2019-04-04T17:09:43.083Z,5.07
2019-04-04T17:12:15.037Z,5.63
2019-04-04T17:14:45.888Z,5.40
2019-04-04T17:17:16.251Z,4.93
2019-04-04T17:19:46.571Z,6.20
2019-04-04T17:22:17.287Z,5.07
2019-04-04T17:24:47.613Z,6.17
2019-04-04T17:27:18.542Z,5.67
2019-04-04T17:29:49.190Z,6.03
2019-04-04T17:32:19.519Z,5.20
2019-04-04T17:34:50.306Z,5.10
2019-04-04T17:37:20.734Z,5.50
2019-04-04T17:39:51.466Z,5.53
2019-04-04T17:42:28.999Z,5.30
2019-04-04T17:44:53.944Z,5.70
2019-04-04T17:47:24.330Z,6.30
2019-04-04T17:49:54.783Z,5.70
2019-04-04T17:52:25.326Z,5.17
2019-04-04T17:54:56.029Z,5.70
2019-04-04T17:57:26.383Z,6.60
2019-04-04T17:59:56.763Z,5.70
2019-04-04T18:02:27.356Z,6.23
2019-04-04T18:04:57.734Z,6.40
2019-04-04T18:07:28.477Z,6.53
2019-04-04T18:09:58.856Z,7.47
2019-04-04T18:12:39.718Z,6.40
2019-04-04T18:15:02.208Z,6.30
2019-04-04T18:17:32.841Z,7.50
2019-04-04T18:20:04.806Z,6.60
2019-04-04T18:22:35.476Z,7.03
2019-04-04T18:25:07.287Z,7.10
2019-04-04T18:27:37.625Z,7.10
2019-04-04T18:30:10.799Z,6.50
2019-04-04T18:32:41.216Z,7.17
2019-04-04T18:35:11.892Z,7.97
2019-04-04T18:37:42.980Z,8.20
2019-04-04T18:40:13.343Z,8.03
2019-04-04T18:42:53.219Z,8.20
2019-04-04T18:45:15.806Z,8.80
2019-04-04T18:47:46.699Z,8.97
2019-04-04T18:50:17.340Z,7.80
2019-04-04T18:52:47.735Z,8.20
2019-04-04T18:55:20.155Z,8.90
2019-04-04T18:57:50.645Z,8.80
2019-04-04T19:00:20.993Z,9.70
2019-04-04T19:02:51.887Z,9.30
2019-04-04T19:05:22.612Z,9.20
2019-04-04T19:07:52.978Z,9.60
2019-04-04T19:10:23.755Z,10.77
2019-04-04T19:13:04.838Z,10.27
2019-04-04T19:15:26.278Z,11.37
2019-04-04T19:17:56.991Z,10.80
2019-04-04T19:20:28.027Z,9.60
2019-04-04T19:22:58.391Z,10.33
2019-04-04T19:25:29.417Z,11.00
2019-04-04T19:28:00.124Z,10.40
2019-04-04T19:30:30.937Z,11.07
2019-04-04T19:33:01.589Z,9.50
2019-04-04T19:35:31.944Z,9.30
2019-04-04T19:38:02.303Z,8.33
2019-04-04T19:40:33.308Z,8.40
2019-04-04T19:43:04.149Z,8.47
2019-04-04T19:45:34.764Z,8.13
2019-04-04T19:48:05.476Z,7.97
2019-04-04T19:50:39.025Z,22.47
2019-04-04T19:53:08.518Z,9.40
2019-04-04T19:55:38.845Z,7.40
2019-04-04T19:58:09.685Z,8.40
2019-04-04T20:00:40.428Z,8.93
2019-04-04T20:03:11.155Z,7.77
2019-04-04T20:05:44.336Z,8.93
2019-04-04T20:08:13.952Z,7.47
2019-04-04T20:10:44.308Z,8.30
2019-04-04T20:13:15.083Z,8.03
2019-04-04T20:15:45.446Z,8.47
2019-04-04T20:18:16.090Z,7.93
2019-04-04T20:20:46.684Z,7.10
2019-04-04T20:23:17.092Z,7.83
2019-04-04T20:25:48.186Z,7.13
2019-04-04T20:28:18.662Z,7.27
2019-04-04T20:30:49.072Z,7.63
2019-04-04T20:33:19.853Z,6.80
2019-04-04T20:35:50.394Z,7.60
2019-04-04T20:38:20.778Z,7.87
2019-04-04T20:40:51.206Z,7.90
2019-04-04T20:43:26.401Z,8.40
2019-04-04T20:45:56.778Z,7.80
2019-04-04T20:48:27.161Z,8.37
2019-04-04T20:50:58.241Z,8.40
2019-04-04T20:53:28.643Z,9.07
2019-04-04T20:55:59.275Z,8.93
2019-04-04T20:58:29.631Z,8.30
2019-04-04T21:01:00.070Z,9.33
2019-04-04T21:03:30.872Z,9.20
2019-04-04T21:06:01.723Z,8.73
2019-04-04T21:08:32.410Z,9.43
2019-04-04T21:11:03.130Z,9.20
2019-04-04T21:13:33.880Z,9.33
2019-04-04T21:16:04.259Z,9.73
2019-04-04T21:18:34.712Z,9.47
2019-04-04T21:21:05.358Z,9.90
2019-04-04T21:23:35.795Z,8.83
2019-04-04T21:26:06.553Z,9.50
2019-04-04T21:28:37.212Z,9.90
2019-04-04T21:31:07.540Z,9.80
2019-04-04T21:33:37.942Z,10.10
2019-04-04T21:36:08.308Z,11.20
2019-04-04T21:38:38.760Z,9.90
2019-04-04T21:41:09.097Z,10.30
2019-04-04T21:43:39.494Z,9.57
2019-04-04T21:46:09.857Z,11.03
2019-04-04T21:48:40.548Z,10.77
2019-04-04T21:51:11.553Z,10.50
2019-04-04T21:53:42.619Z,10.33
2019-04-04T21:56:12.980Z,11.63
2019-04-04T21:58:43.419Z,10.27
2019-04-04T22:01:19.526Z,11.67
2019-04-04T22:03:50.699Z,10.80
2019-04-04T22:06:21.184Z,10.17
2019-04-04T22:08:51.547Z,10.53
2019-04-04T22:11:21.947Z,10.30
2019-04-04T22:13:52.584Z,10.50
2019-04-04T22:16:23.665Z,10.90
2019-04-04T22:18:54.056Z,10.70
2019-04-04T22:21:24.398Z,10.77
2019-04-04T22:24:14.560Z,11.50
2019-04-04T22:26:45.350Z,10.70
2019-04-04T22:29:16.086Z,10.60
2019-04-04T22:31:46.445Z,10.67
2019-04-04T22:34:16.819Z,11.63
2019-04-04T22:36:47.176Z,10.70
2019-04-04T22:39:17.570Z,11.17
2019-04-04T22:41:47.938Z,11.30
2019-04-04T22:44:18.753Z,11.20
2019-04-04T22:46:49.238Z,12.07
2019-04-04T22:49:20.125Z,11.60
2019-04-04T22:51:51.060Z,11.83
2019-04-04T22:54:21.818Z,12.50
2019-04-04T22:56:53.430Z,12.30
2019-04-04T22:59:24.143Z,12.57
2019-04-04T23:01:54.531Z,12.93
2019-04-04T23:04:24.964Z,12.17
2019-04-04T23:06:55.327Z,12.53
2019-04-04T23:09:25.890Z,11.67
2019-04-04T23:11:56.219Z,12.13
2019-04-04T23:14:26.586Z,12.10
2019-04-04T23:16:57.306Z,11.70
2019-04-04T23:19:28.044Z,13.27
2019-04-04T23:21:58.373Z,11.97
2019-04-04T23:24:28.932Z,12.03
2019-04-04T23:26:59.681Z,12.87
2019-04-04T23:29:30.073Z,12.23
2019-04-04T23:32:00.447Z,11.47
2019-04-04T23:34:30.784Z,11.40
2019-04-04T23:37:01.490Z,12.07
2019-04-04T23:39:32.541Z,11.10
2019-04-04T23:42:02.886Z,11.53
2019-04-04T23:44:33.590Z,11.50
2019-04-04T23:47:04.269Z,11.90
2019-04-04T23:49:34.782Z,10.50
2019-04-04T23:52:05.125Z,12.93
2019-04-04T23:54:35.909Z,12.00
2019-04-04T23:57:06.681Z,12.20
2019-04-04T23:59:37.748Z,10.90
